createdAt,value
2022-10-17T00:00:13.134Z,0.00
2022-10-17T00:01:13.121Z,0.00
2022-10-17T00:02:13.040Z,0.00
2022-10-17T00:03:13.034Z,0.00
2022-10-17T00:04:13.010Z,0.00
2022-10-17T00:05:13.007Z,0.00
2022-10-17T00:06:13.056Z,0.00
2022-10-17T00:07:13.014Z,0.00
2022-10-17T00:08:12.969Z,0.00
2022-10-17T00:09:12.961Z,0.00
2022-10-17T00:10:12.949Z,0.00
2022-10-17T00:11:12.942Z,0.00
2022-10-17T00:12:12.946Z,0.00
2022-10-17T00:13:12.923Z,0.00
2022-10-17T00:14:12.923Z,0.00
2022-10-17T00:15:12.895Z,0.00
2022-10-17T00:16:12.888Z,0.00
2022-10-17T00:17:12.907Z,0.00
2022-10-17T00:18:12.891Z,0.00
2022-10-17T00:19:12.849Z,0.00
2022-10-17T00:20:12.848Z,0.00
2022-10-17T00:21:12.841Z,0.00
2022-10-17T00:22:12.838Z,0.00
2022-10-17T00:23:12.824Z,0.00
2022-10-17T00:24:12.786Z,0.00
2022-10-17T00:25:12.830Z,0.00
2022-10-17T00:26:12.768Z,0.00
2022-10-17T00:27:12.766Z,0.00
2022-10-17T00:28:12.788Z,0.00
2022-10-17T00:29:12.743Z,0.00
2022-10-17T00:30:12.728Z,0.00
2022-10-17T00:31:12.791Z,0.00
2022-10-17T00:32:12.703Z,0.00
2022-10-17T00:33:12.706Z,0.00
2022-10-17T00:34:12.710Z,0.00
2022-10-17T00:35:12.703Z,0.00
2022-10-17T00:36:12.667Z,0.00
2022-10-17T00:37:12.640Z,0.00
2022-10-17T00:38:12.654Z,0.00
2022-10-17T00:39:12.624Z,0.00
2022-10-17T00:40:12.609Z,0.00
2022-10-17T00:41:12.638Z,0.00
2022-10-17T00:42:12.602Z,0.00
2022-10-17T00:43:12.583Z,0.00
2022-10-17T00:44:12.583Z,0.00
2022-10-17T00:45:12.567Z,0.00
2022-10-17T00:46:12.578Z,0.00
2022-10-17T00:47:12.537Z,0.00
2022-10-17T00:48:12.543Z,0.00
2022-10-17T00:49:12.514Z,0.00
2022-10-17T00:50:12.522Z,0.00
2022-10-17T00:51:12.513Z,0.00
2022-10-17T00:52:12.515Z,0.00
2022-10-17T00:53:12.472Z,0.00
2022-10-17T00:54:12.486Z,0.00
2022-10-17T00:55:12.454Z,0.00
2022-10-17T00:56:12.489Z,0.00
2022-10-17T00:57:12.496Z,0.00
2022-10-17T00:58:12.415Z,0.00
2022-10-17T00:59:12.427Z,0.00
2022-10-17T01:00:12.409Z,0.00
2022-10-17T01:01:12.408Z,0.00
2022-10-17T01:02:12.378Z,0.00
2022-10-17T01:03:12.373Z,0.00
2022-10-17T01:04:12.347Z,0.00
2022-10-17T01:05:12.338Z,0.00
2022-10-17T01:06:12.340Z,0.00
2022-10-17T01:07:12.323Z,0.00
2022-10-17T01:08:12.302Z,0.00
2022-10-17T01:09:12.291Z,0.00
2022-10-17T01:10:12.401Z,0.00
2022-10-17T01:11:12.287Z,0.00
2022-10-17T01:12:12.258Z,0.00
2022-10-17T01:13:12.252Z,0.00
2022-10-17T01:14:12.225Z,0.00
2022-10-17T01:15:12.238Z,0.00
2022-10-17T01:16:12.238Z,0.00
2022-10-17T01:17:12.215Z,0.00
2022-10-17T01:18:12.218Z,0.00
2022-10-17T01:19:12.188Z,0.00
2022-10-17T01:20:12.205Z,0.00
2022-10-17T01:21:12.153Z,0.00
2022-10-17T01:22:12.140Z,0.00
2022-10-17T01:23:12.158Z,0.00
2022-10-17T01:24:12.126Z,0.00
2022-10-17T01:25:12.110Z,0.00
2022-10-17T01:26:12.136Z,0.00
2022-10-17T01:27:12.090Z,0.00
2022-10-17T01:28:12.062Z,0.00
2022-10-17T01:29:12.100Z,0.00
2022-10-17T01:30:12.047Z,0.00
2022-10-17T01:31:12.051Z,0.00
2022-10-17T01:32:12.024Z,0.00
2022-10-17T01:33:12.036Z,0.00
2022-10-17T01:34:12.029Z,0.00
2022-10-17T01:35:12.008Z,0.00
2022-10-17T01:36:11.998Z,0.00
2022-10-17T01:37:11.987Z,0.00
2022-10-17T01:38:11.969Z,0.00
2022-10-17T01:39:11.997Z,0.00
2022-10-17T01:40:11.933Z,0.00
2022-10-17T01:41:11.949Z,0.00
2022-10-17T01:42:11.918Z,0.00
2022-10-17T01:43:11.913Z,0.00
2022-10-17T01:44:11.918Z,0.00
2022-10-17T01:45:11.877Z,0.00
2022-10-17T01:46:11.860Z,0.00
2022-10-17T01:47:11.863Z,0.00
2022-10-17T01:48:11.843Z,0.00
2022-10-17T01:49:11.867Z,0.00
2022-10-17T01:50:11.845Z,0.00
2022-10-17T01:51:11.814Z,0.00
2022-10-17T01:52:11.823Z,0.00
2022-10-17T01:53:11.792Z,0.00
2022-10-17T01:54:11.796Z,0.00
2022-10-17T01:55:11.783Z,0.00
2022-10-17T01:56:11.761Z,0.00
2022-10-17T01:57:11.760Z,0.00
2022-10-17T01:58:11.753Z,0.00
2022-10-17T01:59:11.781Z,0.00
2022-10-17T02:00:11.710Z,0.00
2022-10-17T02:01:11.771Z,0.00
2022-10-17T02:02:11.714Z,0.00
2022-10-17T02:03:11.690Z,0.00
2022-10-17T02:04:11.683Z,0.00
2022-10-17T02:05:11.674Z,0.00
2022-10-17T02:06:11.645Z,0.00
2022-10-17T02:07:11.649Z,0.00
2022-10-17T02:08:11.616Z,0.00
2022-10-17T02:09:11.641Z,0.00
2022-10-17T02:10:11.637Z,0.00
2022-10-17T02:11:11.579Z,0.00
2022-10-17T02:12:11.598Z,0.00
2022-10-17T02:13:11.575Z,0.00
2022-10-17T02:15:11.560Z,0.00
2022-10-17T02:16:11.532Z,0.00
2022-10-17T02:17:11.571Z,0.00
2022-10-17T02:18:11.556Z,0.00
2022-10-17T02:19:11.504Z,0.00
2022-10-17T02:20:11.482Z,0.00
2022-10-17T02:21:11.479Z,0.00
2022-10-17T02:22:11.473Z,0.00
2022-10-17T02:23:11.518Z,0.00
2022-10-17T02:24:11.444Z,0.00
2022-10-17T02:25:11.448Z,0.00
2022-10-17T02:26:11.425Z,0.00
2022-10-17T02:27:11.413Z,0.00
2022-10-17T02:28:11.426Z,0.00
2022-10-17T02:29:11.388Z,0.00
2022-10-17T02:30:11.411Z,0.00
2022-10-17T02:31:11.371Z,0.00
2022-10-17T02:32:11.409Z,0.00
2022-10-17T02:33:11.371Z,0.00
2022-10-17T02:34:11.329Z,0.00
2022-10-17T02:35:11.358Z,0.00
2022-10-17T02:36:11.309Z,0.00
2022-10-17T02:37:11.297Z,0.00
2022-10-17T02:38:11.317Z,0.00
2022-10-17T02:39:11.310Z,0.00
2022-10-17T02:40:11.275Z,0.00
2022-10-17T02:41:11.259Z,0.00
2022-10-17T02:42:11.254Z,0.00
2022-10-17T02:43:11.251Z,0.00
2022-10-17T02:44:11.255Z,0.00
2022-10-17T02:45:11.206Z,0.00
2022-10-17T02:46:11.212Z,0.00
2022-10-17T02:47:11.193Z,0.00
2022-10-17T02:48:11.178Z,0.00
2022-10-17T02:49:11.166Z,0.00
2022-10-17T02:50:11.166Z,0.00
2022-10-17T02:51:11.146Z,0.00
2022-10-17T02:52:11.143Z,0.00
2022-10-17T02:53:11.121Z,0.00
2022-10-17T02:54:11.121Z,0.00
2022-10-17T02:55:11.132Z,0.00
2022-10-17T02:56:11.135Z,0.00
2022-10-17T02:57:11.078Z,0.00
2022-10-17T02:58:11.069Z,0.00
2022-10-17T02:59:11.107Z,0.00
2022-10-17T03:00:11.046Z,0.00
2022-10-17T03:01:11.103Z,0.00
2022-10-17T03:02:11.028Z,0.00
2022-10-17T03:03:11.018Z,0.00
2022-10-17T03:04:11.023Z,0.00
2022-10-17T03:05:10.998Z,0.00
2022-10-17T03:06:10.990Z,0.00
2022-10-17T03:07:10.964Z,0.00
2022-10-17T03:08:10.982Z,0.00
2022-10-17T03:09:10.946Z,0.00
2022-10-17T03:10:10.929Z,0.00
2022-10-17T03:11:10.939Z,0.00
2022-10-17T03:12:10.940Z,0.00
2022-10-17T03:13:10.911Z,0.00
2022-10-17T03:14:10.884Z,0.00
2022-10-17T03:15:10.885Z,0.00
2022-10-17T03:16:10.898Z,0.00
2022-10-17T03:17:10.872Z,0.00
2022-10-17T03:18:10.843Z,0.00
2022-10-17T03:19:10.845Z,0.00
2022-10-17T03:20:10.848Z,0.00
2022-10-17T03:21:10.828Z,0.00
2022-10-17T03:22:10.808Z,0.00
2022-10-17T03:23:10.789Z,0.00
2022-10-17T03:24:10.779Z,0.00
2022-10-17T03:25:10.764Z,0.00
2022-10-17T03:26:10.772Z,0.00
2022-10-17T03:27:10.742Z,0.00
2022-10-17T03:28:10.733Z,0.00
2022-10-17T03:29:10.847Z,0.00
2022-10-17T03:30:10.712Z,0.00
2022-10-17T03:31:10.699Z,0.00
2022-10-17T03:32:10.714Z,0.00
2022-10-17T03:33:10.711Z,0.00
2022-10-17T03:34:10.654Z,0.00
2022-10-17T03:35:14.818Z,0.00
2022-10-17T03:36:10.673Z,0.00
2022-10-17T03:37:10.629Z,0.00
2022-10-17T03:38:10.661Z,0.00
2022-10-17T03:39:10.659Z,0.00
2022-10-17T03:40:10.606Z,0.00
2022-10-17T03:41:10.574Z,0.00
2022-10-17T03:42:10.569Z,0.00
2022-10-17T03:43:10.559Z,0.00
2022-10-17T03:44:10.587Z,0.00
2022-10-17T03:45:10.550Z,0.00
2022-10-17T03:46:10.657Z,0.00
2022-10-17T03:47:13.362Z,0.00
2022-10-17T03:48:10.528Z,0.00
2022-10-17T03:49:10.494Z,0.00
2022-10-17T03:50:10.491Z,0.00
2022-10-17T03:51:10.506Z,0.00
2022-10-17T03:52:10.489Z,0.00
2022-10-17T03:53:10.525Z,0.00
2022-10-17T03:54:10.454Z,0.00
2022-10-17T03:55:10.424Z,0.00
2022-10-17T03:56:10.411Z,0.00
2022-10-17T03:57:10.465Z,0.00
2022-10-17T03:58:10.390Z,0.00
2022-10-17T03:59:10.373Z,0.00
2022-10-17T04:00:10.391Z,0.00
2022-10-17T04:01:10.384Z,0.00
2022-10-17T04:02:10.336Z,0.00
2022-10-17T04:03:14.955Z,0.00
2022-10-17T04:04:10.320Z,0.00
2022-10-17T04:05:10.313Z,0.00
2022-10-17T04:06:10.319Z,0.00
2022-10-17T04:07:10.298Z,0.00
2022-10-17T04:08:10.305Z,0.00
2022-10-17T04:09:10.282Z,0.00
2022-10-17T04:10:10.248Z,0.00
2022-10-17T04:11:10.257Z,0.00
2022-10-17T04:12:10.246Z,0.00
2022-10-17T04:13:10.231Z,0.00
2022-10-17T04:14:10.245Z,0.00
2022-10-17T04:15:10.211Z,0.00
2022-10-17T04:16:10.253Z,0.00
2022-10-17T04:17:10.182Z,0.00
2022-10-17T04:18:10.201Z,0.00
2022-10-17T04:19:10.176Z,0.00
2022-10-17T04:20:10.171Z,0.00
2022-10-17T04:21:10.157Z,0.00
2022-10-17T04:22:10.120Z,0.00
2022-10-17T04:23:10.163Z,0.00
2022-10-17T04:24:10.130Z,0.00
2022-10-17T04:25:10.115Z,0.00
2022-10-17T04:26:10.086Z,0.00
2022-10-17T04:27:10.095Z,0.00
2022-10-17T04:28:10.051Z,0.00
2022-10-17T04:29:10.057Z,0.00
2022-10-17T04:30:10.044Z,0.00
2022-10-17T04:31:10.095Z,0.00
2022-10-17T04:32:10.019Z,0.00
2022-10-17T04:33:10.041Z,0.00
2022-10-17T04:34:10.020Z,0.00
2022-10-17T04:35:09.984Z,0.00
2022-10-17T04:36:10.001Z,0.00
2022-10-17T04:37:09.944Z,0.00
2022-10-17T04:38:09.946Z,0.00
2022-10-17T04:39:09.990Z,0.00
2022-10-17T04:40:09.937Z,0.00
2022-10-17T04:41:09.904Z,0.00
2022-10-17T04:42:09.955Z,0.00
2022-10-17T04:43:09.899Z,0.00
2022-10-17T04:44:09.907Z,0.00
2022-10-17T04:45:09.880Z,0.00
2022-10-17T04:46:09.850Z,0.00
2022-10-17T04:47:09.857Z,0.00
2022-10-17T04:48:09.858Z,0.00
2022-10-17T04:49:09.817Z,0.00
2022-10-17T04:50:09.818Z,0.00
2022-10-17T04:51:09.797Z,0.00
2022-10-17T04:52:09.780Z,0.00
2022-10-17T04:53:09.783Z,0.00
2022-10-17T04:54:09.759Z,0.00
2022-10-17T04:55:09.753Z,0.00
2022-10-17T04:56:09.761Z,0.00
2022-10-17T04:57:09.755Z,0.00
2022-10-17T04:58:09.729Z,0.00
2022-10-17T04:59:09.719Z,0.00
2022-10-17T05:01:09.741Z,0.00
2022-10-17T05:02:09.709Z,0.00
2022-10-17T05:03:09.670Z,0.00
2022-10-17T05:04:09.692Z,0.00
2022-10-17T05:05:09.712Z,0.00
2022-10-17T05:06:09.633Z,0.00
2022-10-17T05:07:09.653Z,0.00
2022-10-17T05:08:09.618Z,0.00
2022-10-17T05:09:09.594Z,0.00
2022-10-17T05:10:09.583Z,0.00
2022-10-17T05:11:09.582Z,0.00
2022-10-17T05:12:10.486Z,4.00
2022-10-17T05:13:09.576Z,4.00
2022-10-17T05:14:09.716Z,4.00
2022-10-17T05:15:09.537Z,4.00
2022-10-17T05:16:09.527Z,0.00
2022-10-17T05:17:09.503Z,4.00
2022-10-17T05:18:09.480Z,4.00
2022-10-17T05:19:09.487Z,4.00
2022-10-17T05:20:09.500Z,4.00
2022-10-17T05:21:10.283Z,4.00
2022-10-17T05:22:09.435Z,4.00
2022-10-17T05:23:09.473Z,8.00
2022-10-17T05:24:09.435Z,8.00
2022-10-17T05:25:09.408Z,8.00
2022-10-17T05:26:09.405Z,8.00
2022-10-17T05:27:09.422Z,12.00
2022-10-17T05:28:09.376Z,12.00
2022-10-17T05:29:09.398Z,12.00
2022-10-17T05:30:09.359Z,12.00
2022-10-17T05:31:09.973Z,16.00
2022-10-17T05:32:09.347Z,20.00
2022-10-17T05:33:09.335Z,20.00
2022-10-17T05:34:11.615Z,24.00
2022-10-17T05:35:09.342Z,24.00
2022-10-17T05:36:09.303Z,28.00
2022-10-17T05:37:09.295Z,32.00
2022-10-17T05:38:09.321Z,36.00
2022-10-17T05:39:09.276Z,40.00
2022-10-17T05:40:09.251Z,40.00
2022-10-17T05:41:09.281Z,44.00
2022-10-17T05:42:09.212Z,48.00
2022-10-17T05:43:09.208Z,56.00
2022-10-17T05:44:09.205Z,56.00
2022-10-17T05:45:09.190Z,60.00
2022-10-17T05:46:09.188Z,68.00
2022-10-17T05:47:09.191Z,76.00
2022-10-17T05:48:09.153Z,76.00
2022-10-17T05:49:14.957Z,84.00
2022-10-17T05:50:09.219Z,92.00
2022-10-17T05:51:09.131Z,100.00
2022-10-17T05:52:09.122Z,104.00
2022-10-17T05:53:09.123Z,112.00
2022-10-17T05:54:09.121Z,120.00
2022-10-17T05:55:09.071Z,128.00
2022-10-17T05:56:09.165Z,136.00
2022-10-17T05:57:09.061Z,148.00
2022-10-17T05:58:11.747Z,156.00
2022-10-17T05:59:09.032Z,168.00
2022-10-17T06:00:09.007Z,180.00
2022-10-17T06:01:10.756Z,192.00
2022-10-17T06:02:09.050Z,204.00
2022-10-17T06:03:09.013Z,216.00
2022-10-17T06:04:08.984Z,228.00
2022-10-17T06:05:08.974Z,236.00
2022-10-17T06:06:08.937Z,248.00
2022-10-17T06:07:08.984Z,256.00
2022-10-17T06:08:08.935Z,268.00
2022-10-17T06:09:09.471Z,280.00
2022-10-17T06:10:08.902Z,292.00
2022-10-17T06:11:10.260Z,304.00
2022-10-17T06:12:08.887Z,316.00
2022-10-17T06:13:08.888Z,332.00
2022-10-17T06:14:08.846Z,344.00
2022-10-17T06:15:08.855Z,356.00
2022-10-17T06:16:08.897Z,368.00
2022-10-17T06:17:13.403Z,380.00
2022-10-17T06:18:08.835Z,392.00
2022-10-17T06:19:08.812Z,404.00
2022-10-17T06:20:08.804Z,416.00
2022-10-17T06:21:08.800Z,428.00
2022-10-17T06:22:08.790Z,440.00
2022-10-17T06:23:08.774Z,452.00
2022-10-17T06:24:08.758Z,464.00
2022-10-17T06:25:08.738Z,476.00
2022-10-17T06:26:08.719Z,488.00
2022-10-17T06:27:11.788Z,496.00
2022-10-17T06:28:08.714Z,508.00
2022-10-17T06:29:08.733Z,520.00
2022-10-17T06:30:08.676Z,532.00
2022-10-17T06:31:08.718Z,544.00
2022-10-17T06:32:11.200Z,556.00
2022-10-17T06:33:08.702Z,568.00
2022-10-17T06:34:08.635Z,580.00
2022-10-17T06:35:08.619Z,592.00
2022-10-17T06:36:08.643Z,600.00
2022-10-17T06:37:08.637Z,612.00
2022-10-17T06:38:08.610Z,620.00
2022-10-17T06:39:08.638Z,636.00
2022-10-17T06:40:08.563Z,644.00
2022-10-17T06:41:08.604Z,656.00
2022-10-17T06:42:08.553Z,668.00
2022-10-17T06:43:08.578Z,680.00
2022-10-17T06:44:08.566Z,692.00
2022-10-17T06:45:08.536Z,696.00
2022-10-17T06:46:08.703Z,708.00
2022-10-17T06:47:08.492Z,716.00
2022-10-17T06:48:08.502Z,728.00
2022-10-17T06:49:08.473Z,736.00
2022-10-17T06:50:08.500Z,744.00
2022-10-17T06:51:08.471Z,756.00
2022-10-17T06:52:08.427Z,772.00
2022-10-17T06:53:08.513Z,788.00
2022-10-17T06:54:08.421Z,800.00
2022-10-17T06:55:08.404Z,808.00
2022-10-17T06:56:08.399Z,816.00
2022-10-17T06:57:08.384Z,832.00
2022-10-17T06:58:08.386Z,852.00
2022-10-17T06:59:08.347Z,856.00
2022-10-17T07:00:08.405Z,864.00
2022-10-17T07:02:08.351Z,888.00
2022-10-17T07:03:08.325Z,896.00
2022-10-17T07:04:08.303Z,904.00
2022-10-17T07:05:08.285Z,912.00
2022-10-17T07:06:08.308Z,924.00
2022-10-17T07:07:08.286Z,936.00
2022-10-17T07:08:09.381Z,948.00
2022-10-17T07:09:08.234Z,972.00
2022-10-17T07:10:08.229Z,996.00
2022-10-17T07:11:08.253Z,1028.00
2022-10-17T07:12:08.242Z,1064.00
2022-10-17T07:13:08.224Z,1084.00
2022-10-17T07:14:08.194Z,1088.00
2022-10-17T07:15:08.179Z,1088.00
2022-10-17T07:16:08.172Z,1092.00
2022-10-17T07:17:08.244Z,1100.00
2022-10-17T07:18:08.163Z,1108.00
2022-10-17T07:19:08.135Z,1112.00
2022-10-17T07:20:08.166Z,1128.00
2022-10-17T07:21:08.122Z,1144.00
2022-10-17T07:22:08.107Z,1156.00
2022-10-17T07:23:08.120Z,1160.00
2022-10-17T07:24:08.104Z,1168.00
2022-10-17T07:25:08.068Z,1172.00
2022-10-17T07:26:08.078Z,1192.00
2022-10-17T07:27:08.036Z,1224.00
2022-10-17T07:28:08.026Z,1248.00
2022-10-17T07:29:08.142Z,1260.00
2022-10-17T07:30:08.064Z,1288.00
2022-10-17T07:31:08.021Z,1312.00
2022-10-17T07:32:08.079Z,1332.00
2022-10-17T07:33:08.108Z,1344.00
2022-10-17T07:34:07.980Z,1344.00
2022-10-17T07:35:07.969Z,1324.00
2022-10-17T07:36:08.003Z,1360.00
2022-10-17T07:37:07.973Z,1416.00
2022-10-17T07:38:07.952Z,1540.00
2022-10-17T07:39:07.895Z,1728.00
2022-10-17T07:40:09.153Z,1848.00
2022-10-17T07:41:07.900Z,1872.00
2022-10-17T07:42:07.888Z,1772.00
2022-10-17T07:43:07.933Z,1736.00
2022-10-17T07:44:07.859Z,1756.00
2022-10-17T07:45:07.853Z,1720.00
2022-10-17T07:46:07.844Z,1716.00
2022-10-17T07:47:07.812Z,1756.00
2022-10-17T07:48:07.817Z,1728.00
2022-10-17T07:49:07.817Z,1776.00
2022-10-17T07:50:07.805Z,1744.00
2022-10-17T07:51:07.769Z,1692.00
2022-10-17T07:52:07.805Z,1652.00
2022-10-17T07:53:07.780Z,1600.00
2022-10-17T07:54:07.737Z,1584.00
2022-10-17T07:55:07.744Z,1532.00
2022-10-17T07:56:07.800Z,1496.00
2022-10-17T07:57:07.716Z,1472.00
2022-10-17T07:58:07.707Z,1480.00
2022-10-17T07:59:09.415Z,1488.00
2022-10-17T08:00:07.667Z,1500.00
2022-10-17T08:01:10.695Z,1504.00
2022-10-17T08:02:07.716Z,1516.00
2022-10-17T08:03:07.656Z,1556.00
2022-10-17T08:04:07.628Z,1624.00
2022-10-17T08:05:07.667Z,1672.00
2022-10-17T08:06:07.622Z,1672.00
2022-10-17T08:07:21.739Z,1660.00
2022-10-17T08:08:07.623Z,1628.00
2022-10-17T08:09:07.580Z,1608.00
2022-10-17T08:11:07.590Z,1608.00
2022-10-17T08:12:07.535Z,1616.00
2022-10-17T08:13:07.618Z,1628.00
2022-10-17T08:14:07.522Z,1648.00
2022-10-17T08:15:07.512Z,1680.00
2022-10-17T08:16:07.523Z,1700.00
2022-10-17T08:17:07.538Z,1736.00
2022-10-17T08:18:07.468Z,1764.00
2022-10-17T08:20:07.465Z,1804.00
2022-10-17T08:21:08.440Z,1832.00
2022-10-17T08:22:07.433Z,1876.00
2022-10-17T08:23:07.437Z,1924.00
2022-10-17T08:24:07.427Z,1960.00
2022-10-17T08:25:07.386Z,2004.00
2022-10-17T08:26:07.506Z,2048.00
2022-10-17T08:27:07.379Z,2028.00
2022-10-17T08:29:07.483Z,2224.00
2022-10-17T08:30:07.333Z,2168.00
2022-10-17T08:31:07.326Z,2132.00
2022-10-17T08:32:09.571Z,2128.00
2022-10-17T08:33:07.300Z,2256.00
2022-10-17T08:34:07.315Z,2332.00
2022-10-17T08:35:07.333Z,1644.00
2022-10-17T08:36:07.324Z,1716.00
2022-10-17T08:37:07.303Z,1628.00
2022-10-17T08:38:09.048Z,1700.00
2022-10-17T08:39:07.228Z,1556.00
2022-10-17T08:40:07.231Z,1944.00
2022-10-17T08:41:07.272Z,1404.00
2022-10-17T08:42:07.250Z,2240.00
2022-10-17T08:43:07.197Z,2652.00
2022-10-17T08:44:07.187Z,2844.00
2022-10-17T08:45:07.189Z,2012.00
2022-10-17T08:46:07.184Z,1736.00
2022-10-17T08:47:07.151Z,1560.00
2022-10-17T08:48:07.135Z,1460.00
2022-10-17T08:49:10.056Z,1800.00
2022-10-17T08:50:07.150Z,2416.00
2022-10-17T08:51:07.104Z,2568.00
2022-10-17T08:52:07.120Z,2780.00
2022-10-17T08:53:07.102Z,2960.00
2022-10-17T08:54:07.054Z,3072.00
2022-10-17T08:55:07.121Z,3616.00
2022-10-17T08:56:11.882Z,4500.00
2022-10-17T08:57:07.075Z,3792.00
2022-10-17T08:58:07.206Z,4248.00
2022-10-17T08:59:06.999Z,3972.00
2022-10-17T09:00:06.983Z,3868.00
2022-10-17T09:01:12.738Z,4072.00
2022-10-17T09:02:07.005Z,3860.00
2022-10-17T09:03:07.060Z,3532.00
2022-10-17T09:04:06.962Z,2296.00
2022-10-17T09:05:06.940Z,1876.00
2022-10-17T09:06:06.913Z,1780.00
2022-10-17T09:07:06.999Z,2320.00
2022-10-17T09:08:06.915Z,2628.00
2022-10-17T09:09:06.943Z,2688.00
2022-10-17T09:10:06.899Z,1512.00
2022-10-17T09:11:06.909Z,1512.00
2022-10-17T09:12:06.868Z,1496.00
2022-10-17T09:13:07.943Z,1496.00
2022-10-17T09:14:06.873Z,1488.00
2022-10-17T09:15:06.812Z,1476.00
2022-10-17T09:16:06.807Z,1468.00
2022-10-17T09:17:06.844Z,1436.00
2022-10-17T09:18:06.800Z,1448.00
2022-10-17T09:19:06.801Z,1584.00
2022-10-17T09:20:06.839Z,1692.00
2022-10-17T09:21:06.766Z,1808.00
2022-10-17T09:22:06.748Z,2040.00
2022-10-17T09:23:06.769Z,2036.00
2022-10-17T09:24:09.589Z,1952.00
2022-10-17T09:25:06.726Z,1920.00
2022-10-17T09:26:06.732Z,1908.00
2022-10-17T09:27:06.715Z,2140.00
2022-10-17T09:28:06.695Z,2548.00
2022-10-17T09:29:06.754Z,2980.00
2022-10-17T09:30:07.260Z,3056.00
2022-10-17T09:31:06.667Z,2844.00
2022-10-17T09:32:06.648Z,2740.00
2022-10-17T09:33:06.634Z,2508.00
2022-10-17T09:34:06.606Z,2336.00
2022-10-17T09:35:06.613Z,1936.00
2022-10-17T09:36:06.642Z,1636.00
2022-10-17T09:37:06.589Z,1600.00
2022-10-17T09:38:06.619Z,1704.00
2022-10-17T09:39:06.556Z,1664.00
2022-10-17T09:40:06.550Z,1708.00
2022-10-17T09:41:19.974Z,2028.00
2022-10-17T09:42:06.545Z,2252.00
2022-10-17T09:43:06.522Z,2100.00
2022-10-17T09:44:06.504Z,2156.00
2022-10-17T09:45:06.498Z,2256.00
2022-10-17T09:46:06.479Z,2600.00
2022-10-17T09:47:06.476Z,2840.00
2022-10-17T09:48:06.447Z,3944.00
2022-10-17T09:49:06.449Z,3080.00
2022-10-17T09:50:06.439Z,2832.00
2022-10-17T09:51:21.793Z,2564.00
2022-10-17T09:52:06.500Z,2572.00
2022-10-17T09:53:06.404Z,3504.00
2022-10-17T09:54:06.427Z,3400.00
2022-10-17T09:55:06.379Z,2684.00
2022-10-17T09:56:06.373Z,3876.00
2022-10-17T09:57:06.428Z,3688.00
2022-10-17T09:58:06.368Z,2520.00
2022-10-17T09:59:09.314Z,2364.00
2022-10-17T10:00:06.403Z,2164.00
2022-10-17T10:01:06.367Z,2028.00
2022-10-17T10:02:06.321Z,2016.00
2022-10-17T10:03:06.315Z,1952.00
2022-10-17T10:04:06.331Z,1932.00
2022-10-17T10:05:07.065Z,2008.00
2022-10-17T10:06:06.248Z,1904.00
2022-10-17T10:07:06.231Z,1720.00
2022-10-17T10:08:06.231Z,1816.00
2022-10-17T10:09:06.252Z,1948.00
2022-10-17T10:10:06.249Z,1896.00
2022-10-17T10:11:06.538Z,1780.00
2022-10-17T10:12:06.206Z,1952.00
2022-10-17T10:13:06.193Z,1748.00
2022-10-17T10:14:06.170Z,1628.00
2022-10-17T10:15:06.178Z,1560.00
2022-10-17T10:16:06.201Z,1548.00
2022-10-17T10:17:06.133Z,1596.00
2022-10-17T10:18:06.104Z,1816.00
2022-10-17T10:19:08.429Z,1796.00
2022-10-17T10:20:06.258Z,1684.00
2022-10-17T10:21:06.095Z,1700.00
2022-10-17T10:22:06.062Z,1984.00
2022-10-17T10:23:06.067Z,2156.00
2022-10-17T10:24:06.079Z,2624.00
2022-10-17T10:25:06.056Z,1972.00
2022-10-17T10:26:06.059Z,1968.00
2022-10-17T10:27:06.027Z,3276.00
2022-10-17T10:28:06.026Z,3336.00
2022-10-17T10:29:06.121Z,2660.00
2022-10-17T10:30:05.996Z,2756.00
2022-10-17T10:31:06.045Z,2652.00
2022-10-17T10:32:05.975Z,2612.00
2022-10-17T10:33:05.944Z,2680.00
2022-10-17T10:34:05.984Z,2788.00
2022-10-17T10:35:05.940Z,2800.00
2022-10-17T10:36:05.929Z,2884.00
2022-10-17T10:37:05.921Z,2812.00
2022-10-17T10:38:05.901Z,2596.00
2022-10-17T10:39:05.902Z,2712.00
2022-10-17T10:40:05.890Z,3312.00
2022-10-17T10:41:05.931Z,2484.00
2022-10-17T10:42:05.834Z,2688.00
2022-10-17T10:43:05.874Z,2100.00
2022-10-17T10:44:05.858Z,2172.00
2022-10-17T10:45:06.336Z,2324.00
2022-10-17T10:46:05.841Z,2660.00
2022-10-17T10:47:05.796Z,2852.00
2022-10-17T10:48:05.773Z,2776.00
2022-10-17T10:49:05.816Z,2332.00
2022-10-17T10:50:05.766Z,2652.00
2022-10-17T10:51:05.796Z,2760.00
2022-10-17T10:52:05.743Z,2720.00
2022-10-17T10:53:05.721Z,2740.00
2022-10-17T10:54:05.703Z,2748.00
2022-10-17T10:55:05.741Z,2468.00
2022-10-17T10:56:05.697Z,2816.00
2022-10-17T10:57:05.686Z,2260.00
2022-10-17T10:58:05.683Z,2496.00
2022-10-17T10:59:05.733Z,2892.00
2022-10-17T11:00:05.645Z,2540.00
2022-10-17T11:01:05.745Z,2956.00
2022-10-17T11:02:05.643Z,3052.00
2022-10-17T11:03:07.576Z,2860.00
2022-10-17T11:04:05.617Z,3224.00
2022-10-17T11:05:05.617Z,3116.00
2022-10-17T11:06:05.591Z,3132.00
2022-10-17T11:07:05.607Z,3076.00
2022-10-17T11:08:05.559Z,2968.00
2022-10-17T11:09:05.585Z,2928.00
2022-10-17T11:10:05.517Z,2908.00
2022-10-17T11:11:05.524Z,2888.00
2022-10-17T11:12:05.515Z,2796.00
2022-10-17T11:13:05.500Z,2736.00
2022-10-17T11:14:05.539Z,2680.00
2022-10-17T11:15:05.512Z,2684.00
2022-10-17T11:16:05.484Z,2696.00
2022-10-17T11:17:05.479Z,2716.00
2022-10-17T11:18:05.452Z,2332.00
2022-10-17T11:19:05.525Z,2320.00
2022-10-17T11:20:05.444Z,2884.00
2022-10-17T11:21:05.414Z,1936.00
2022-10-17T11:22:05.415Z,1880.00
2022-10-17T11:23:05.391Z,1796.00
2022-10-17T11:24:07.037Z,1812.00
2022-10-17T11:25:05.411Z,1880.00
2022-10-17T11:26:05.395Z,2112.00
2022-10-17T11:27:05.343Z,1820.00
2022-10-17T11:28:05.501Z,1812.00
2022-10-17T11:29:05.384Z,1828.00
2022-10-17T11:30:05.311Z,1780.00
2022-10-17T11:31:07.275Z,2544.00
2022-10-17T11:32:06.121Z,2288.00
2022-10-17T11:33:05.278Z,2304.00
2022-10-17T11:34:05.254Z,2496.00
2022-10-17T11:35:05.274Z,2476.00
2022-10-17T11:36:05.255Z,2488.00
2022-10-17T11:37:05.236Z,2516.00
2022-10-17T11:38:05.240Z,2560.00
2022-10-17T11:39:05.258Z,2380.00
2022-10-17T11:40:05.209Z,2092.00
2022-10-17T11:41:05.181Z,1964.00
2022-10-17T11:42:05.162Z,2016.00
2022-10-17T11:43:05.232Z,2316.00
2022-10-17T11:44:05.143Z,2232.00
2022-10-17T11:45:05.169Z,1768.00
2022-10-17T11:46:05.199Z,1900.00
2022-10-17T11:47:05.156Z,2304.00
2022-10-17T11:48:05.153Z,2212.00
2022-10-17T11:49:05.151Z,2188.00
2022-10-17T11:52:05.094Z,1996.00
2022-10-17T11:53:05.119Z,2076.00
2022-10-17T11:54:05.042Z,2108.00
2022-10-17T11:55:05.058Z,2116.00
2022-10-17T11:56:05.014Z,2112.00
2022-10-17T11:57:05.048Z,2168.00
2022-10-17T11:58:05.033Z,2176.00
2022-10-17T11:59:05.020Z,2172.00
2022-10-17T12:00:05.024Z,2188.00
2022-10-17T12:01:05.010Z,2168.00
2022-10-17T12:02:04.954Z,2160.00
2022-10-17T12:03:04.947Z,2160.00
2022-10-17T12:04:05.038Z,2152.00
2022-10-17T12:05:04.945Z,2152.00
2022-10-17T12:06:04.932Z,2120.00
2022-10-17T12:07:04.887Z,2100.00
2022-10-17T12:08:04.904Z,2056.00
2022-10-17T12:09:04.900Z,2068.00
2022-10-17T12:10:04.885Z,2032.00
2022-10-17T12:11:04.869Z,1984.00
2022-10-17T12:12:04.859Z,1976.00
2022-10-17T12:13:04.830Z,1972.00
2022-10-17T12:14:06.122Z,1984.00
2022-10-17T12:15:04.791Z,1976.00
2022-10-17T12:16:04.788Z,1976.00
2022-10-17T12:17:04.790Z,1972.00
2022-10-17T12:18:04.777Z,1972.00
2022-10-17T12:19:04.752Z,1964.00
2022-10-17T12:20:04.757Z,1952.00
2022-10-17T12:21:04.756Z,1936.00
2022-10-17T12:22:04.728Z,1940.00
2022-10-17T12:23:04.733Z,1976.00
2022-10-17T12:24:04.690Z,2008.00
2022-10-17T12:25:04.702Z,1984.00
2022-10-17T12:26:05.362Z,1952.00
2022-10-17T12:27:04.661Z,1656.00
2022-10-17T12:28:04.657Z,1972.00
2022-10-17T12:29:04.727Z,1828.00
2022-10-17T12:30:04.647Z,1932.00
2022-10-17T12:31:04.663Z,1940.00
2022-10-17T12:32:04.626Z,1880.00
2022-10-17T12:33:06.466Z,1868.00
2022-10-17T12:34:04.625Z,1652.00
2022-10-17T12:35:04.565Z,1932.00
2022-10-17T12:36:04.642Z,2016.00
2022-10-17T12:37:04.835Z,1984.00
2022-10-17T12:38:04.538Z,1516.00
2022-10-17T12:39:04.539Z,1964.00
2022-10-17T12:40:04.521Z,1984.00
2022-10-17T12:41:05.055Z,1948.00
2022-10-17T12:42:04.551Z,1748.00
2022-10-17T12:43:04.484Z,1756.00
2022-10-17T12:44:04.485Z,1400.00
2022-10-17T12:45:04.495Z,1652.00
2022-10-17T12:46:04.482Z,1968.00
2022-10-17T12:47:04.446Z,1856.00